»·PEaware :: N13M KBUR-KLAS

N13M :: KBUR-KLAS

FLIGHT INFORMATION

Flight Status: Arrived
Operator: Privately registered:
United States
More flights under this callsign
Pilot: Zhuojun Y. (28503)
Aircraft: SOCATA TBM-900
(TBM9)
More flights by this aircraft type
Origin: KBUR Bob Hope-Burbank
United States
Destination: KLAS McCarran Intl
United States
More flights between these airports :: More routes between these airports
Route: VNY3 DAG CRESO4
File this flight plan on PilotEdge
Remarks: I5 RATING
Altitude:
(Current/Filed)
11,000ft
Speed:
(Current/Filed)
220kts
Departed: 15-Apr-20 09:55 PM
Arrived: 15-Apr-20 10:58 PM
Distance/Time
Traveled:
193nm/1:03
Distance/Time
To Go:
Arrived

Flight Plot

Page will automatically refresh every two minutes.

Flight plan parsing failed; only flown route is shown


Map Options




Map Legend


Flown Route
Filed Route
Departure Airport
Arrival Airport
Navaid (VOR, NDB)
Fix

Horizontal Profiles

Position Reports

Time Latitude Longitude Heading Altitude Ground
Speed
15-Apr-20 21:47 34.204070 -118.359913 188 737ft 0kts
15-Apr-20 21:47 34.204070 -118.359913 188 737ft 0kts
15-Apr-20 21:48 34.204070 -118.359913 188 737ft 0kts
15-Apr-20 21:49 34.204070 -118.359913 188 737ft 0kts
15-Apr-20 21:50 34.204314 -118.359399 346 737ft 11kts
15-Apr-20 21:51 34.208423 -118.360547 345 737ft 17kts
15-Apr-20 21:52 34.211057 -118.361257 348 737ft 8kts
15-Apr-20 21:53 34.211870 -118.360639 100 737ft 7kts
15-Apr-20 21:54 34.193117 -118.356086 180 1420ft 117kts
15-Apr-20 21:55 34.161470 -118.389230 224 2934ft 174kts
15-Apr-20 21:56 34.124892 -118.433331 225 3986ft 206kts
15-Apr-20 21:57 34.117193 -118.492262 335 3960ft 227kts
15-Apr-20 21:58 34.180311 -118.498349 9 4012ft 228kts
15-Apr-20 21:59 34.236427 -118.487703 8 5714ft 188kts
15-Apr-20 22:00 34.286128 -118.478461 8 7471ft 175kts
15-Apr-20 22:01 34.332786 -118.469794 8 9233ft 166kts
15-Apr-20 22:02 34.377611 -118.461388 12 10918ft 164kts
15-Apr-20 22:03 34.413250 -118.412334 52 10985ft 217kts
15-Apr-20 22:04 34.443641 -118.363987 52 10974ft 227kts
15-Apr-20 22:05 34.489933 -118.290240 52 10972ft 229kts
15-Apr-20 22:06 34.530085 -118.226139 52 10976ft 248kts
15-Apr-20 22:07 34.572466 -118.158337 52 10973ft 254kts
15-Apr-20 22:08 34.615615 -118.089161 52 10974ft 260kts
15-Apr-20 22:09 34.637739 -118.007073 82 10974ft 265kts
15-Apr-20 22:10 34.647433 -117.917619 82 10972ft 266kts
15-Apr-20 22:11 34.657124 -117.828427 82 10972ft 266kts
15-Apr-20 22:12 34.670106 -117.740079 72 10974ft 266kts
15-Apr-20 22:13 34.692414 -117.653443 72 10972ft 266kts
15-Apr-20 22:14 34.714600 -117.566770 72 10972ft 267kts
15-Apr-20 22:15 34.736683 -117.480200 72 10972ft 267kts
15-Apr-20 22:16 34.758616 -117.393936 72 10972ft 267kts
15-Apr-20 22:17 34.780563 -117.307337 72 10972ft 267kts
15-Apr-20 22:18 34.802537 -117.220334 72 10972ft 267kts
15-Apr-20 22:19 34.824436 -117.133336 72 10972ft 267kts
15-Apr-20 22:20 34.846161 -117.046746 72 10972ft 267kts
15-Apr-20 22:21 34.867853 -116.959988 72 10972ft 267kts
15-Apr-20 22:22 34.889636 -116.872577 72 10972ft 267kts
15-Apr-20 22:23 34.911318 -116.785272 72 10972ft 266kts
15-Apr-20 22:24 34.933021 -116.697582 72 11009ft 266kts
15-Apr-20 22:25 34.954872 -116.608991 72 11009ft 266kts
15-Apr-20 22:26 34.986002 -116.525215 61 11009ft 266kts
15-Apr-20 22:27 35.022244 -116.443717 61 11009ft 266kts
15-Apr-20 22:28 35.058041 -116.362967 61 11009ft 266kts
15-Apr-20 22:29 35.093985 -116.281705 61 11009ft 266kts
15-Apr-20 22:30 35.130120 -116.199807 61 11009ft 266kts
15-Apr-20 22:31 35.165819 -116.118706 61 11009ft 266kts
15-Apr-20 22:32 35.201045 -116.038489 61 11009ft 266kts
15-Apr-20 22:33 35.235962 -115.958788 61 11009ft 266kts
15-Apr-20 22:34 35.271065 -115.878472 61 11009ft 266kts
15-Apr-20 22:35 35.306038 -115.798261 61 11009ft 266kts
15-Apr-20 22:36 35.354002 -115.729345 46 11009ft 266kts
15-Apr-20 22:37 35.404138 -115.662507 47 11009ft 267kts
15-Apr-20 22:38 35.454548 -115.595129 47 11009ft 267kts
15-Apr-20 22:39 35.504881 -115.527716 47 11009ft 267kts
15-Apr-20 22:40 35.555055 -115.460433 47 11009ft 267kts
15-Apr-20 22:41 35.605544 -115.392596 47 11009ft 267kts
15-Apr-20 22:42 35.655621 -115.325176 47 11009ft 267kts
15-Apr-20 22:43 35.705685 -115.257635 47 10896ft 267kts
15-Apr-20 22:44 35.753213 -115.193400 47 9781ft 245kts
15-Apr-20 22:45 35.800000 -115.136678 12 8555ft 241kts
15-Apr-20 22:46 35.864747 -115.120295 11 7319ft 228kts
15-Apr-20 22:47 35.922779 -115.105677 11 7036ft 194kts
15-Apr-20 22:48 35.973789 -115.092810 11 7043ft 182kts
15-Apr-20 22:49 36.022994 -115.080376 11 7045ft 179kts
15-Apr-20 22:50 36.073273 -115.067649 11 6571ft 198kts
15-Apr-20 22:51 36.127879 -115.053820 11 5377ft 180kts
15-Apr-20 22:52 36.172544 -115.059353 328 4046ft 160kts
15-Apr-20 22:53 36.173959 -115.105910 244 3533ft 131kts
15-Apr-20 22:54 36.149036 -115.128937 202 3539ft 93kts
15-Apr-20 22:55 36.125940 -115.141251 204 2843ft 87kts
15-Apr-20 22:56 36.104186 -115.153928 205 2294ft 84kts
15-Apr-20 22:57 36.090249 -115.161843 204 2119ft 21kts
15-Apr-20 22:58 36.089453 -115.163673 293 2128ft 1kts
15-Apr-20 22:59 36.089426 -115.165235 271 2134ft 9kts
15-Apr-20 23:00 36.089437 -115.166983 270 2140ft 0kts
15-Apr-20 23:01 36.089437 -115.166983 270 2140ft 0kts

Navigation Log

Ident Type
Flight plan parsing failed, navigation log unavailable